createdAt,value
2023-04-05T00:01:09.535Z,-3.83
2023-04-05T00:03:37.299Z,-3.58
2023-04-05T00:06:05.685Z,-3.55
2023-04-05T00:08:34.064Z,-3.52
2023-04-05T00:11:02.667Z,-3.57
2023-04-05T00:13:30.731Z,-3.62
2023-04-05T00:15:58.634Z,-3.70
2023-04-05T00:18:27.169Z,-3.64
2023-04-05T00:20:54.596Z,-3.58
2023-04-05T00:23:23.171Z,-3.42
2023-04-05T00:25:51.578Z,-3.53
2023-04-05T00:28:19.148Z,-3.41
2023-04-05T00:30:48.418Z,-3.34
2023-04-05T00:33:15.906Z,-3.46
2023-04-05T00:35:43.277Z,-3.46
2023-04-05T00:38:12.825Z,-3.59
2023-04-05T00:40:40.480Z,-3.64
2023-04-05T00:43:08.361Z,-3.56
2023-04-05T00:45:35.821Z,-3.53
2023-04-05T00:48:06.737Z,-3.53
2023-04-05T00:50:35.090Z,-3.46
2023-04-05T00:53:05.792Z,-3.35
2023-04-05T00:55:34.970Z,-3.38
2023-04-05T00:58:02.395Z,-3.52
2023-04-05T01:00:30.667Z,-3.43
2023-04-05T01:03:04.503Z,-3.41
2023-04-05T01:05:37.978Z,-3.36
2023-04-05T01:08:33.280Z,-3.39
2023-04-05T01:11:04.827Z,-3.40
2023-04-05T01:13:33.687Z,-3.37
2023-04-05T01:16:04.728Z,-3.50
2023-04-05T01:18:33.387Z,-3.38
2023-04-05T01:21:21.167Z,-3.22
2023-04-05T01:24:21.365Z,-3.43
2023-04-05T01:26:51.568Z,-3.53
2023-04-05T01:29:32.889Z,-3.60
2023-04-05T01:32:08.162Z,-3.50
2023-04-05T01:34:35.615Z,-3.57
2023-04-05T01:37:07.877Z,-3.60
2023-04-05T01:39:37.543Z,-3.71
2023-04-05T01:42:05.120Z,-3.75
2023-04-05T01:44:32.668Z,-3.69
2023-04-05T01:47:00.894Z,-3.72
2023-04-05T01:49:28.986Z,-3.71
2023-04-05T01:51:56.614Z,-3.67
2023-04-05T01:54:23.920Z,-3.79
2023-04-05T01:56:53.488Z,-3.87
2023-04-05T01:59:21.978Z,-3.88
2023-04-05T02:01:49.074Z,-3.80
2023-04-05T02:04:16.282Z,-3.80
2023-04-05T02:06:43.789Z,-3.75
2023-04-05T02:09:13.343Z,-3.62
2023-04-05T02:11:46.954Z,-3.60
2023-04-05T02:14:14.481Z,-3.65
2023-04-05T02:16:41.913Z,-3.80
2023-04-05T02:19:09.409Z,-3.79
2023-04-05T02:21:37.128Z,-3.68
2023-04-05T02:24:04.803Z,-3.65
2023-04-05T02:26:32.328Z,-3.56
2023-04-05T02:29:00.731Z,-3.67
2023-04-05T02:31:34.387Z,-3.80
2023-04-05T02:34:02.172Z,-3.87
2023-04-05T02:36:29.743Z,-3.72
2023-04-05T02:38:59.162Z,-3.70
2023-04-05T02:41:27.745Z,-3.59
2023-04-05T02:43:55.156Z,-3.71
2023-04-05T02:46:22.654Z,-3.75
2023-04-05T02:48:50.076Z,-3.60
2023-04-05T02:51:17.425Z,-3.60
2023-04-05T02:53:48.545Z,-3.48
2023-04-05T02:56:15.988Z,-3.65
2023-04-05T02:58:43.532Z,-3.63
2023-04-05T03:01:11.024Z,-3.52
2023-04-05T03:03:40.525Z,-3.53
2023-04-05T03:06:11.023Z,-3.32
2023-04-05T03:08:46.815Z,-3.43
2023-04-05T03:11:15.711Z,-3.63
2023-04-05T03:13:43.061Z,-3.74
2023-04-05T03:16:17.607Z,-3.85
2023-04-05T03:18:45.129Z,-3.77
2023-04-05T03:21:12.674Z,-3.64
2023-04-05T03:23:40.062Z,-3.73
2023-04-05T03:26:07.893Z,-3.72
2023-04-05T03:28:36.621Z,-3.97
2023-04-05T03:31:04.966Z,-4.13
2023-04-05T03:33:32.472Z,-3.94
2023-04-05T03:36:00.241Z,-3.80
2023-04-05T03:38:28.717Z,-3.84
2023-04-05T03:40:56.299Z,-4.08
2023-04-05T03:43:23.741Z,-4.11
2023-04-05T03:45:51.376Z,-4.22
2023-04-05T03:48:24.790Z,-4.30
2023-04-05T03:50:52.243Z,-4.11
2023-04-05T03:53:19.873Z,-4.14
2023-04-05T03:55:50.685Z,-4.06
2023-04-05T03:58:18.259Z,-3.77
2023-04-05T04:00:47.460Z,-4.05
2023-04-05T04:03:15.421Z,-4.11
2023-04-05T04:05:43.350Z,-4.18
2023-04-05T04:08:11.301Z,-4.11
2023-04-05T04:10:38.484Z,-4.25
2023-04-05T04:13:05.664Z,-4.21
2023-04-05T04:15:33.210Z,-4.15
2023-04-05T04:18:02.783Z,-4.15
2023-04-05T04:20:30.174Z,-4.14
2023-04-05T04:22:59.608Z,-4.03
2023-04-05T04:25:31.081Z,-4.06
2023-04-05T04:27:58.935Z,-3.98
2023-04-05T04:30:26.678Z,-3.90
2023-04-05T04:32:55.435Z,-4.05
2023-04-05T04:35:25.603Z,-4.33
2023-04-05T04:38:00.955Z,-4.33
2023-04-05T04:40:39.616Z,-4.28
2023-04-05T04:43:10.495Z,-4.06
2023-04-05T04:45:38.290Z,-4.12
2023-04-05T04:48:05.724Z,-4.21
2023-04-05T04:50:33.062Z,-4.28
2023-04-05T04:53:04.766Z,-4.35
2023-04-05T04:55:34.203Z,-4.52
2023-04-05T04:58:01.380Z,-4.45
2023-04-05T05:00:28.878Z,-4.26
2023-04-05T05:02:56.515Z,-4.35
2023-04-05T05:05:23.988Z,-4.37
2023-04-05T05:07:52.978Z,-4.38
2023-04-05T05:10:21.309Z,-4.30
2023-04-05T05:12:52.065Z,-3.92
2023-04-05T05:15:19.962Z,-3.82
2023-04-05T05:17:47.651Z,-3.79
2023-04-05T05:20:15.203Z,-3.73
2023-04-05T05:22:42.826Z,-3.67
2023-04-05T05:25:12.652Z,-3.80
2023-04-05T05:27:40.247Z,-3.78
2023-04-05T05:30:09.555Z,-3.59
2023-04-05T05:32:37.164Z,-3.46
2023-04-05T05:35:04.850Z,-3.27
2023-04-05T05:37:32.966Z,-3.10
2023-04-05T05:40:01.098Z,-3.05
2023-04-05T05:42:28.641Z,-2.82
2023-04-05T05:44:55.959Z,-2.80
2023-04-05T05:47:23.417Z,-2.62
2023-04-05T05:49:50.898Z,-2.63
2023-04-05T05:52:18.366Z,-2.52
2023-04-05T05:54:47.787Z,-2.45
2023-04-05T05:57:16.425Z,-2.50
2023-04-05T05:59:44.834Z,-2.40
2023-04-05T06:02:12.703Z,-2.23
2023-04-05T06:04:40.918Z,-2.06
2023-04-05T06:07:08.120Z,-1.86
2023-04-05T06:09:35.659Z,-1.58
2023-04-05T06:12:10.859Z,-1.37
2023-04-05T06:14:38.107Z,-1.27
2023-04-05T06:17:05.120Z,-1.14
2023-04-05T06:19:32.606Z,-1.06
2023-04-05T06:22:01.200Z,-1.06
2023-04-05T06:24:32.159Z,-0.82
2023-04-05T06:26:59.944Z,-0.84
2023-04-05T06:29:27.791Z,-0.64
2023-04-05T06:31:55.958Z,-0.75
2023-04-05T06:34:23.442Z,-0.75
2023-04-05T06:36:51.010Z,-0.58
2023-04-05T06:39:18.435Z,-0.30
2023-04-05T11:08:31.671Z,8.95
2023-04-05T11:10:59.871Z,9.47
2023-04-05T11:13:56.743Z,9.19
2023-04-05T11:16:38.435Z,9.50
2023-04-05T11:19:06.459Z,9.90
2023-04-05T11:21:34.940Z,9.97
2023-04-05T11:24:06.959Z,9.79
2023-04-05T11:26:41.340Z,9.61
2023-04-05T11:29:08.767Z,9.32
2023-04-05T11:31:37.190Z,9.29
2023-04-05T11:34:12.518Z,9.39
2023-04-05T11:36:46.241Z,9.63
2023-04-05T11:39:19.856Z,9.42
2023-04-05T11:41:53.101Z,8.88
2023-04-05T11:44:22.350Z,8.40
2023-04-05T11:46:50.110Z,7.91
2023-04-05T11:49:18.365Z,7.45
2023-04-05T11:51:50.633Z,7.22
2023-04-05T11:54:33.914Z,7.49
2023-04-05T11:57:02.436Z,7.70
2023-04-05T11:59:36.784Z,7.85
2023-04-05T12:02:09.553Z,7.86
2023-04-05T12:04:38.385Z,8.03
2023-04-05T12:07:26.760Z,7.28
2023-04-05T12:10:04.010Z,6.83
2023-04-05T12:12:40.845Z,7.02
2023-04-05T12:15:12.041Z,6.85
2023-04-05T12:17:42.722Z,6.63
2023-04-05T12:20:11.271Z,6.81
2023-04-05T12:22:40.966Z,6.98
2023-04-05T12:25:09.424Z,7.04
2023-04-05T12:27:37.373Z,7.22
2023-04-05T12:30:15.146Z,7.25
2023-04-05T12:32:45.262Z,7.18
2023-04-05T12:35:21.526Z,7.14
2023-04-05T12:37:58.453Z,6.99
2023-04-05T12:40:26.184Z,7.03
2023-04-05T12:43:09.556Z,7.05
2023-04-05T12:45:44.228Z,7.00
2023-04-05T12:48:22.465Z,7.39
2023-04-05T12:50:52.403Z,8.20
2023-04-05T12:53:22.514Z,9.31
2023-04-05T12:55:54.289Z,10.45
2023-04-05T12:58:23.158Z,11.41
2023-04-05T13:00:50.731Z,12.35
2023-04-05T13:03:21.386Z,12.38
2023-04-05T13:05:49.554Z,12.34
2023-04-05T13:08:20.292Z,11.56
2023-04-05T13:10:50.306Z,11.22
2023-04-05T13:13:18.494Z,9.86
2023-04-05T13:15:47.017Z,8.38
2023-04-05T13:18:15.280Z,8.19
2023-04-05T13:20:43.123Z,8.61
2023-04-05T13:23:13.061Z,8.83
2023-04-05T13:25:42.289Z,8.85
2023-04-05T13:28:10.082Z,8.84
2023-04-05T13:30:37.944Z,8.57
2023-04-05T13:33:06.033Z,8.27
2023-04-05T13:35:33.929Z,8.27
2023-04-05T13:38:04.262Z,8.66
2023-04-05T13:40:33.250Z,8.89
2023-04-05T13:43:02.635Z,9.02
2023-04-05T13:45:32.248Z,9.21
2023-04-05T13:48:04.704Z,9.25
2023-04-05T13:50:32.130Z,9.41
2023-04-05T13:52:59.590Z,9.42
2023-04-05T13:55:26.623Z,9.17
2023-04-05T13:58:01.260Z,8.87
2023-04-05T14:00:28.485Z,8.75
2023-04-05T14:02:57.173Z,8.66
2023-04-05T14:05:24.566Z,8.68
2023-04-05T14:07:53.673Z,8.85
2023-04-05T14:10:22.740Z,9.08
2023-04-05T14:12:50.487Z,9.34
2023-04-05T14:15:20.657Z,9.86
2023-04-05T14:17:49.554Z,10.52
2023-04-05T14:20:17.929Z,11.27
2023-04-05T14:22:48.410Z,12.39
2023-04-05T14:25:18.047Z,13.30
2023-04-05T14:27:53.253Z,13.13
2023-04-05T14:30:20.936Z,13.45
2023-04-05T14:32:47.992Z,13.56
2023-04-05T14:35:16.452Z,13.77
2023-04-05T14:37:43.554Z,13.99
2023-04-05T14:40:11.308Z,14.25
2023-04-05T14:42:48.294Z,14.29
2023-04-05T14:45:17.498Z,13.73
2023-04-05T14:47:45.179Z,13.11
2023-04-05T14:50:13.585Z,12.87
2023-04-05T14:52:47.152Z,12.54
2023-04-05T14:55:15.076Z,12.20
2023-04-05T14:57:43.289Z,11.89
2023-04-05T15:00:12.264Z,11.74
2023-04-05T15:02:39.858Z,11.38
2023-04-05T15:05:08.105Z,11.14
2023-04-05T15:07:37.515Z,10.61
2023-04-05T15:10:07.268Z,10.40
2023-04-05T15:12:34.606Z,10.31
2023-04-05T15:15:02.539Z,10.03
2023-04-05T15:17:29.973Z,9.39
2023-04-05T15:19:57.379Z,9.25
2023-04-05T15:22:24.864Z,9.03
2023-04-05T15:24:52.400Z,9.01
2023-04-05T15:27:19.688Z,8.88
2023-04-05T15:29:47.280Z,8.88
2023-04-05T15:32:14.618Z,8.85
2023-04-05T15:34:42.253Z,8.95
2023-04-05T15:37:10.517Z,8.82
2023-04-05T15:39:38.369Z,8.73
2023-04-05T15:42:05.506Z,8.46
2023-04-05T15:44:35.040Z,8.35
2023-04-05T15:47:03.890Z,8.55
2023-04-05T15:49:31.400Z,8.67
2023-04-05T15:52:00.410Z,8.85
2023-04-05T15:54:28.962Z,8.76
2023-04-05T15:56:58.451Z,8.58
2023-04-05T15:59:28.250Z,8.39
2023-04-05T16:01:55.537Z,8.14
2023-04-05T16:04:23.513Z,8.14
2023-04-05T16:06:50.629Z,7.93
2023-04-05T16:09:17.738Z,7.83
2023-04-05T16:11:45.375Z,7.73
2023-04-05T16:14:14.381Z,7.58
2023-04-05T16:16:52.853Z,7.49
2023-04-05T16:19:24.482Z,7.34
2023-04-05T16:21:54.163Z,7.27
2023-04-05T16:24:21.815Z,6.95
2023-04-05T16:26:49.521Z,6.99
2023-04-05T16:29:16.877Z,6.99
2023-04-05T16:31:47.716Z,6.91
2023-04-05T16:34:15.813Z,6.79
2023-04-05T16:36:43.356Z,6.87
2023-04-05T16:39:10.745Z,6.94
2023-04-05T16:41:38.317Z,6.97
2023-04-05T16:44:05.896Z,6.95
2023-04-05T16:46:33.213Z,6.89
2023-04-05T16:49:01.045Z,6.94
2023-04-05T16:51:28.902Z,6.92
2023-04-05T16:53:56.101Z,6.92
2023-04-05T16:56:24.597Z,6.82
2023-04-05T16:58:53.006Z,6.71
2023-04-05T17:01:20.735Z,6.70
2023-04-05T17:03:48.960Z,6.65
2023-04-05T17:06:16.610Z,6.69
2023-04-05T17:08:54.339Z,6.62
2023-04-05T17:11:23.748Z,6.58
2023-04-05T17:13:51.303Z,6.53
2023-04-05T17:16:19.874Z,6.52
2023-04-05T17:18:47.228Z,6.48
2023-04-05T17:21:14.554Z,6.43
2023-04-05T17:23:42.040Z,6.41
2023-04-05T17:26:11.777Z,6.29
2023-04-05T17:28:38.999Z,6.22
2023-04-05T17:31:07.624Z,6.31
2023-04-05T17:33:35.070Z,6.30
2023-04-05T17:36:04.399Z,6.21
2023-04-05T17:38:32.891Z,6.15
2023-04-05T17:41:03.542Z,6.03
2023-04-05T17:43:30.901Z,5.99
2023-04-05T17:45:58.362Z,5.96
2023-04-05T17:48:29.711Z,5.90
2023-04-05T17:50:57.847Z,5.77
2023-04-05T17:53:26.117Z,5.57
2023-04-05T17:55:56.448Z,4.68
2023-04-05T17:58:24.154Z,4.29
2023-04-05T18:00:52.561Z,4.01
2023-04-05T18:03:20.066Z,3.92
2023-04-05T18:05:55.051Z,3.77
2023-04-05T18:08:24.007Z,3.78
2023-04-05T18:11:00.598Z,4.23
2023-04-05T18:13:28.995Z,4.35
2023-04-05T18:16:00.119Z,4.34
2023-04-05T18:18:27.937Z,4.31
2023-04-05T18:20:56.185Z,4.25
2023-04-05T18:23:27.482Z,3.82
2023-04-05T18:25:55.251Z,3.59
2023-04-05T18:28:23.749Z,3.19
2023-04-05T18:30:51.458Z,3.04
2023-04-05T18:33:19.199Z,3.04
2023-04-05T18:35:51.237Z,3.16
2023-04-05T18:38:20.056Z,3.04
2023-04-05T18:40:48.675Z,2.75
2023-04-05T18:43:24.100Z,2.71
2023-04-05T18:45:54.873Z,2.55
2023-04-05T18:48:24.537Z,2.39
2023-04-05T18:50:54.143Z,2.17
2023-04-05T18:53:24.873Z,2.31
2023-04-05T18:55:55.921Z,2.48
2023-04-05T18:58:23.382Z,2.77
2023-04-05T19:00:50.799Z,2.88
2023-04-05T19:03:19.655Z,2.86
2023-04-05T19:05:51.463Z,2.82
2023-04-05T19:08:19.492Z,2.87
2023-04-05T19:10:49.329Z,2.90
2023-04-05T19:13:16.979Z,2.78
2023-04-05T19:15:46.217Z,2.68
2023-04-05T19:18:14.211Z,2.55
2023-04-05T19:20:42.615Z,2.49
2023-04-05T19:23:10.953Z,2.60
2023-04-05T19:25:39.133Z,2.68
2023-04-05T19:28:07.851Z,2.39
2023-04-05T19:30:35.441Z,2.21
2023-04-05T19:33:04.803Z,1.60
2023-04-05T19:35:34.344Z,1.33
2023-04-05T19:38:01.617Z,1.04
2023-04-05T19:40:29.492Z,0.89
2023-04-05T19:42:59.920Z,0.81
2023-04-05T19:45:33.602Z,0.74
2023-04-05T19:48:02.309Z,0.73
2023-04-05T19:50:39.345Z,1.08
2023-04-05T19:53:08.639Z,1.22
2023-04-05T19:55:45.674Z,1.09
2023-04-05T19:58:26.394Z,0.80
2023-04-05T20:00:55.956Z,0.48
2023-04-05T20:03:38.200Z,0.63
2023-04-05T20:06:17.200Z,0.81
2023-04-05T20:08:46.946Z,1.03
2023-04-05T20:11:20.787Z,1.02
2023-04-05T20:13:56.477Z,0.73
2023-04-05T20:16:35.401Z,0.70
2023-04-05T20:19:08.746Z,0.65
2023-04-05T20:21:38.280Z,0.53
2023-04-05T20:24:10.073Z,0.31
2023-04-05T20:26:39.118Z,0.21
2023-04-05T20:29:08.718Z,0.26
2023-04-05T20:31:40.249Z,0.21
2023-04-05T20:34:38.308Z,0.10
2023-04-05T20:37:11.465Z,0.00
2023-04-05T20:39:38.945Z,-0.19
2023-04-05T20:42:07.685Z,-0.53
2023-04-05T20:44:35.391Z,-0.57
2023-04-05T20:47:05.913Z,-0.53
2023-04-05T20:49:34.748Z,-0.23
2023-04-05T20:52:07.869Z,-0.23
2023-04-05T20:54:35.806Z,-0.18
2023-04-05T20:57:03.308Z,-0.33
2023-04-05T20:59:31.055Z,-0.65
2023-04-05T21:02:00.318Z,-0.82
2023-04-05T21:04:29.967Z,-0.97
2023-04-05T21:06:57.408Z,-1.27
2023-04-05T21:09:25.485Z,-1.16
2023-04-05T21:11:52.646Z,-1.10
2023-04-05T21:14:20.077Z,-1.09
2023-04-05T21:16:47.587Z,-1.26
2023-04-05T21:19:15.052Z,-1.09
2023-04-05T21:21:42.440Z,-1.12
2023-04-05T21:24:09.985Z,-1.18
2023-04-05T21:26:37.404Z,-1.37
2023-04-05T21:29:04.959Z,-1.24
2023-04-05T21:31:32.321Z,-0.98
2023-04-05T21:33:59.731Z,-0.89
2023-04-05T21:36:27.538Z,-0.96
2023-04-05T21:38:54.751Z,-1.03
2023-04-05T21:41:23.340Z,-1.13
2023-04-05T21:43:50.790Z,-1.25
2023-04-05T21:46:24.260Z,-1.26
2023-04-05T21:48:51.732Z,-1.28
2023-04-05T21:51:19.197Z,-1.44
2023-04-05T21:53:48.349Z,-1.55
2023-04-05T21:56:16.983Z,-1.53
2023-04-05T21:58:44.626Z,-1.20
2023-04-05T22:01:14.292Z,-1.05
2023-04-05T22:03:42.634Z,-1.01
2023-04-05T22:06:09.992Z,-1.24
2023-04-05T22:08:37.573Z,-1.30
2023-04-05T22:11:06.478Z,-1.41
2023-04-05T22:13:33.989Z,-1.48
2023-04-05T22:16:01.637Z,-1.54
2023-04-05T22:18:29.298Z,-1.54
2023-04-05T22:20:56.994Z,-1.41
2023-04-05T22:23:24.253Z,-1.33
2023-04-05T22:25:53.627Z,-1.43
2023-04-05T22:28:21.861Z,-1.34
2023-04-05T22:30:49.943Z,-1.20
2023-04-05T22:33:18.067Z,-1.19
2023-04-05T22:35:45.746Z,-1.30
2023-04-05T22:38:13.980Z,-1.26
2023-04-05T22:40:41.344Z,-1.28
2023-04-05T22:43:10.846Z,-1.43
2023-04-05T22:45:38.921Z,-1.51
2023-04-05T22:48:06.813Z,-1.58
2023-04-05T22:50:34.541Z,-1.69
2023-04-05T22:53:05.466Z,-1.86
2023-04-05T22:55:34.099Z,-1.90
2023-04-05T22:58:03.551Z,-1.85
2023-04-05T23:00:31.015Z,-1.91
2023-04-05T23:02:58.512Z,-1.81
2023-04-05T23:05:26.485Z,-1.71
2023-04-05T23:07:53.966Z,-1.56
2023-04-05T23:10:21.766Z,-1.66
2023-04-05T23:12:49.348Z,-1.67
2023-04-05T23:15:16.773Z,-1.67
2023-04-05T23:17:44.607Z,-1.71
2023-04-05T23:20:12.310Z,-1.69
2023-04-05T23:22:40.670Z,-1.94
2023-04-05T23:25:08.937Z,-2.03
2023-04-05T23:27:37.081Z,-1.98
2023-04-05T23:30:06.987Z,-2.00
2023-04-05T23:32:34.734Z,-2.11
2023-04-05T23:35:03.126Z,-2.22
2023-04-05T23:37:32.141Z,-2.34
2023-04-05T23:39:59.536Z,-2.55
2023-04-05T23:42:27.051Z,-2.75
2023-04-05T23:44:55.651Z,-2.80
2023-04-05T23:47:23.133Z,-2.81
2023-04-05T23:49:52.321Z,-2.82
2023-04-05T23:52:19.906Z,-2.69
2023-04-05T23:54:47.318Z,-2.44
2023-04-05T23:57:16.074Z,-2.21
2023-04-05T23:59:45.346Z,-2.44
